createdAt,value
2018-04-10T00:02:20.918Z,15.90
2018-04-10T00:04:54.701Z,15.90
2018-04-10T00:07:29.145Z,15.80
2018-04-10T00:10:02.830Z,15.80
2018-04-10T00:12:36.551Z,15.80
2018-04-10T00:15:11.087Z,15.80
2018-04-10T00:17:44.980Z,15.70
2018-04-10T00:20:18.631Z,15.60
2018-04-10T00:22:52.383Z,15.60
2018-04-10T00:25:26.083Z,15.50
2018-04-10T00:27:59.590Z,15.50
2018-04-10T00:30:33.286Z,15.40
2018-04-10T00:33:06.858Z,15.40
2018-04-10T00:35:40.474Z,15.40
2018-04-10T00:38:14.202Z,15.40
2018-04-10T00:40:48.414Z,15.30
2018-04-10T00:43:22.083Z,15.30
2018-04-10T00:45:55.845Z,15.30
2018-04-10T00:48:30.309Z,15.20
2018-04-10T00:51:04.126Z,15.20
2018-04-10T00:53:37.711Z,15.20
2018-04-10T00:56:11.446Z,15.10
2018-04-10T00:58:45.055Z,15.10
2018-04-10T01:01:18.557Z,15.10
2018-04-10T01:03:52.251Z,15.10
2018-04-10T01:06:26.058Z,15.10
2018-04-10T01:08:59.570Z,15.00
2018-04-10T01:11:34.067Z,15.00
2018-04-10T01:14:07.885Z,15.00
2018-04-10T01:16:41.691Z,15.00
2018-04-10T01:19:15.973Z,14.90
2018-04-10T01:21:50.526Z,14.90
2018-04-10T01:24:24.139Z,14.90
2018-04-10T01:26:57.766Z,14.90
2018-04-10T01:29:31.535Z,14.90
2018-04-10T01:32:05.949Z,14.90
2018-04-10T01:34:39.754Z,14.80
2018-04-10T01:37:13.566Z,14.80
2018-04-10T01:39:47.577Z,14.80
2018-04-10T01:42:21.386Z,14.80
2018-04-10T01:44:55.002Z,14.70
2018-04-10T01:47:28.688Z,14.80
2018-04-10T01:50:02.594Z,14.80
2018-04-10T01:52:36.262Z,14.80
2018-04-10T01:55:09.886Z,14.70
2018-04-10T01:57:43.671Z,14.70
2018-04-10T02:00:17.405Z,14.70
2018-04-10T02:02:51.034Z,14.70
2018-04-10T02:05:24.698Z,14.70
2018-04-10T02:07:58.405Z,14.50
2018-04-10T02:10:32.039Z,14.60
2018-04-10T02:13:05.823Z,14.60
2018-04-10T02:15:39.627Z,14.50
2018-04-10T02:18:13.138Z,14.50
2018-04-10T02:20:46.826Z,14.40
2018-04-10T02:23:20.627Z,14.50
2018-04-10T02:25:54.364Z,14.40
2018-04-10T02:28:28.038Z,14.40
2018-04-10T02:31:01.644Z,14.40
2018-04-10T02:33:35.239Z,14.30
2018-04-10T02:36:08.849Z,14.40
2018-04-10T02:38:42.645Z,14.40
2018-04-10T02:41:16.182Z,14.30
2018-04-10T02:43:49.718Z,14.30
2018-04-10T02:46:23.255Z,14.30
2018-04-10T02:48:56.917Z,14.30
2018-04-10T02:51:30.572Z,14.20
2018-04-10T02:54:04.249Z,14.20
2018-04-10T02:56:37.958Z,14.20
2018-04-10T02:59:11.747Z,14.10
2018-04-10T03:01:45.465Z,14.10
2018-04-10T03:04:19.062Z,14.00
2018-04-10T03:06:53.690Z,14.00
2018-04-10T03:09:27.494Z,14.00
2018-04-10T03:12:01.298Z,14.00
2018-04-10T03:14:35.106Z,13.90
2018-04-10T03:17:09.621Z,13.90
2018-04-10T03:19:43.335Z,13.80
2018-04-10T03:22:17.028Z,13.90
2018-04-10T03:24:50.732Z,13.90
2018-04-10T03:27:24.477Z,13.90
2018-04-10T03:29:58.134Z,13.80
2018-04-10T03:32:32.157Z,13.80
2018-04-10T03:35:05.779Z,13.80
2018-04-10T03:37:39.356Z,13.80
2018-04-10T03:40:12.970Z,13.80
2018-04-10T03:42:46.753Z,13.80
2018-04-10T03:45:20.365Z,13.80
2018-04-10T03:47:54.180Z,13.80
2018-04-10T03:50:27.994Z,13.80
2018-04-10T03:53:02.618Z,13.80
2018-04-10T03:55:36.399Z,13.70
2018-04-10T03:58:10.942Z,13.80
2018-04-10T04:00:44.430Z,13.80
2018-04-10T04:03:18.742Z,13.80
2018-04-10T04:05:53.257Z,13.70
2018-04-10T04:08:26.773Z,13.70
2018-04-10T04:11:00.459Z,13.70
2018-04-10T04:13:34.106Z,13.60
2018-04-10T04:16:08.119Z,13.60
2018-04-10T04:18:53.618Z,13.60
2018-04-10T04:24:30.013Z,13.50
2018-04-10T04:27:03.605Z,13.50
2018-04-10T04:29:37.447Z,13.50
2018-04-10T04:32:11.258Z,13.50
2018-04-10T04:34:44.970Z,13.40
2018-04-10T04:37:18.669Z,13.40
2018-04-10T04:39:52.302Z,13.40
2018-04-10T04:42:26.061Z,13.40
2018-04-10T04:44:59.869Z,13.40
2018-04-10T04:47:33.683Z,13.30
2018-04-10T04:50:07.282Z,13.30
2018-04-10T04:52:40.883Z,13.20
2018-04-10T04:55:14.708Z,13.30
2018-04-10T04:57:48.483Z,13.30
2018-04-10T05:00:22.901Z,13.30
2018-04-10T05:02:56.709Z,13.20
2018-04-10T05:05:31.038Z,13.20
2018-04-10T05:08:04.814Z,13.20
2018-04-10T05:10:38.533Z,13.20
2018-04-10T05:13:12.214Z,13.20
2018-04-10T05:15:45.942Z,13.20
2018-04-10T05:18:20.446Z,13.10
2018-04-10T05:20:54.180Z,13.10
2018-04-10T05:23:27.978Z,13.10
2018-04-10T05:26:01.674Z,13.10
2018-04-10T05:28:35.345Z,13.10
2018-04-10T05:31:08.963Z,13.10
2018-04-10T05:33:42.651Z,13.10
2018-04-10T05:36:16.385Z,13.10
2018-04-10T05:38:50.199Z,13.10
2018-04-10T05:41:24.002Z,13.20
2018-04-10T05:43:57.803Z,13.20
2018-04-10T05:46:31.499Z,13.20
2018-04-10T05:49:05.078Z,13.30
2018-04-10T05:51:39.635Z,13.40
2018-04-10T05:54:13.298Z,13.30
2018-04-10T05:56:46.865Z,13.40
2018-04-10T05:59:20.438Z,13.40
2018-04-10T06:01:54.850Z,13.40
2018-04-10T06:04:28.666Z,13.40
2018-04-10T06:07:02.471Z,13.40
2018-04-10T06:09:36.061Z,13.40
2018-04-10T06:12:09.867Z,13.60
2018-04-10T06:14:43.560Z,13.60
2018-04-10T06:17:17.167Z,13.60
2018-04-10T06:19:50.874Z,13.70
2018-04-10T06:22:24.527Z,13.80
2018-04-10T06:24:58.291Z,13.80
2018-04-10T06:27:32.594Z,13.90
2018-04-10T06:30:06.993Z,14.00
2018-04-10T06:32:40.934Z,13.90
2018-04-10T06:35:14.603Z,14.00
2018-04-10T06:37:48.218Z,14.00
2018-04-10T06:40:21.950Z,14.10
2018-04-10T06:42:55.614Z,14.20
2018-04-10T06:45:30.042Z,14.30
2018-04-10T06:48:03.736Z,14.30
2018-04-10T06:50:37.374Z,14.50
2018-04-10T06:53:10.973Z,14.60
2018-04-10T06:55:44.719Z,14.70
2018-04-10T06:58:18.374Z,14.70
2018-04-10T07:00:52.179Z,14.90
2018-04-10T07:03:25.807Z,15.00
2018-04-10T07:05:59.364Z,15.00
2018-04-10T07:08:33.690Z,15.20
2018-04-10T07:11:07.217Z,15.20
2018-04-10T07:13:41.000Z,15.30
2018-04-10T07:16:14.801Z,15.30
2018-04-10T07:18:49.125Z,15.40
2018-04-10T07:21:22.654Z,15.40
2018-04-10T07:23:56.241Z,15.50
2018-04-10T07:26:29.893Z,15.60
2018-04-10T07:29:04.425Z,15.80
2018-04-10T07:31:38.256Z,15.80
2018-04-10T07:34:12.771Z,16.00
2018-04-10T07:36:46.484Z,16.00
2018-04-10T07:39:20.082Z,16.10
2018-04-10T07:41:54.578Z,16.10
2018-04-10T07:44:28.273Z,16.20
2018-04-10T07:47:02.106Z,16.30
2018-04-10T07:49:35.918Z,16.40
2018-04-10T07:52:09.511Z,16.40
2018-04-10T07:54:43.047Z,16.50
2018-04-10T07:57:16.526Z,16.60
2018-04-10T07:59:50.197Z,16.50
2018-04-10T08:02:23.822Z,16.60
2018-04-10T08:04:57.521Z,16.70
2018-04-10T08:07:32.021Z,16.70
2018-04-10T08:10:05.711Z,16.70
2018-04-10T08:12:39.546Z,16.80
2018-04-10T08:15:13.358Z,16.80
2018-04-10T08:17:46.862Z,16.80
2018-04-10T08:20:20.559Z,16.90
2018-04-10T08:22:54.227Z,17.00
2018-04-10T08:25:27.966Z,17.00
2018-04-10T08:28:01.976Z,17.00
2018-04-10T08:30:35.781Z,17.00
2018-04-10T08:33:09.486Z,17.10
2018-04-10T08:37:45.338Z,17.30
2018-04-10T08:40:19.260Z,17.30
2018-04-10T08:42:52.864Z,17.40
2018-04-10T08:45:26.634Z,17.60
2018-04-10T08:48:00.130Z,17.70
2018-04-10T08:50:33.832Z,17.80
2018-04-10T08:53:07.469Z,18.00
2018-04-10T08:55:41.271Z,18.10
2018-04-10T08:58:15.279Z,18.20
2018-04-10T09:00:48.983Z,18.30
2018-04-10T09:03:22.895Z,18.50
2018-04-10T09:05:57.198Z,18.60
2018-04-10T09:08:31.114Z,18.60
2018-04-10T09:11:04.644Z,18.60
2018-04-10T09:13:38.314Z,18.70
2018-04-10T09:16:11.969Z,18.80
2018-04-10T09:18:45.542Z,18.90
2018-04-10T09:21:19.331Z,18.90
2018-04-10T09:23:53.134Z,18.70
2018-04-10T09:26:26.822Z,18.90
2018-04-10T09:29:01.226Z,19.00
2018-04-10T09:31:34.950Z,18.90
2018-04-10T09:34:08.758Z,19.10
2018-04-10T09:36:43.187Z,19.10
2018-04-10T09:39:16.981Z,19.10
2018-04-10T09:41:50.499Z,19.10
2018-04-10T09:44:24.059Z,19.40
2018-04-10T09:46:58.615Z,19.40
2018-04-10T09:49:32.307Z,19.40
2018-04-10T09:52:06.018Z,19.40
2018-04-10T09:54:39.686Z,19.40
2018-04-10T09:57:13.411Z,19.50
2018-04-10T09:59:47.126Z,19.50
2018-04-10T10:02:20.830Z,19.80
2018-04-10T10:04:54.502Z,19.80
2018-04-10T10:07:28.942Z,20.00
2018-04-10T10:10:02.658Z,20.00
2018-04-10T10:12:36.287Z,20.20
2018-04-10T10:15:09.862Z,20.40
2018-04-10T10:17:43.458Z,20.40
2018-04-10T10:20:17.068Z,20.40
2018-04-10T10:22:50.957Z,20.50
2018-04-10T10:25:25.490Z,20.60
2018-04-10T10:27:59.289Z,20.50
2018-04-10T10:30:33.106Z,20.80
2018-04-10T10:33:07.694Z,21.00
2018-04-10T10:35:42.842Z,21.10
2018-04-10T10:38:16.422Z,21.10
2018-04-10T10:40:49.963Z,21.00
2018-04-10T10:43:23.766Z,21.20
2018-04-10T10:45:57.367Z,21.30
2018-04-10T10:48:32.609Z,21.40
2018-04-10T10:51:06.254Z,21.30
2018-04-10T10:53:39.907Z,21.60
2018-04-10T10:56:13.606Z,21.80
2018-04-10T10:58:48.117Z,22.00
2018-04-10T11:01:22.655Z,22.20
2018-04-10T11:03:56.292Z,22.20
2018-04-10T11:06:30.181Z,22.30
2018-04-10T11:09:03.793Z,22.20
2018-04-10T11:11:37.282Z,22.40
2018-04-10T11:14:11.066Z,22.50
2018-04-10T11:16:44.870Z,22.60
2018-04-10T11:19:18.584Z,22.60
2018-04-10T11:21:52.417Z,22.70
2018-04-10T11:24:26.109Z,22.70
2018-04-10T11:27:00.514Z,23.10
2018-04-10T11:29:34.193Z,23.10
2018-04-10T11:32:07.778Z,23.10
2018-04-10T11:34:41.723Z,23.10
2018-04-10T11:37:16.166Z,23.10
2018-04-10T11:42:52.390Z,23.50
2018-04-10T11:45:26.119Z,23.70
2018-04-10T11:47:59.793Z,23.60
2018-04-10T11:50:33.458Z,23.80
2018-04-10T11:53:07.019Z,23.70
2018-04-10T11:55:40.822Z,23.70
2018-04-10T11:58:15.214Z,24.00
2018-04-10T12:00:48.877Z,23.90
2018-04-10T12:03:22.650Z,24.00
2018-04-10T12:05:56.379Z,24.10
2018-04-10T12:08:30.054Z,24.20
2018-04-10T12:11:04.360Z,24.20
2018-04-10T12:13:37.914Z,24.20
2018-04-10T12:16:11.450Z,24.40
2018-04-10T12:18:44.950Z,24.40
2018-04-10T12:21:18.502Z,24.40
2018-04-10T12:23:52.270Z,24.50
2018-04-10T12:26:26.778Z,24.70
2018-04-10T12:29:00.693Z,24.70
2018-04-10T12:31:34.215Z,24.70
2018-04-10T12:34:07.975Z,24.70
2018-04-10T12:36:41.755Z,24.80
2018-04-10T12:39:15.454Z,24.90
2018-04-10T12:41:49.900Z,25.00
2018-04-10T12:44:23.738Z,25.00
2018-04-10T12:46:57.542Z,25.10
2018-04-10T12:49:31.350Z,24.90
2018-04-10T12:52:04.999Z,24.90
2018-04-10T12:54:38.751Z,25.00
2018-04-10T12:57:12.554Z,25.10
2018-04-10T12:59:46.366Z,25.10
2018-04-10T13:02:20.195Z,25.30
2018-04-10T13:04:53.969Z,25.30
2018-04-10T13:07:27.666Z,25.40
2018-04-10T13:10:01.221Z,25.60
2018-04-10T13:12:35.627Z,25.70
2018-04-10T13:15:09.209Z,25.60
2018-04-10T13:17:43.817Z,25.60
2018-04-10T13:20:17.634Z,25.60
2018-04-10T13:22:51.232Z,25.70
2018-04-10T13:25:25.030Z,25.80
2018-04-10T13:27:58.842Z,25.80
2018-04-10T13:30:32.610Z,25.90
2018-04-10T13:33:06.245Z,25.90
2018-04-10T13:35:40.249Z,26.00
2018-04-10T13:38:13.865Z,26.00
2018-04-10T13:40:47.459Z,26.20
2018-04-10T13:43:21.275Z,26.20
2018-04-10T13:45:55.072Z,26.00
2018-04-10T13:48:28.693Z,25.90
2018-04-10T13:51:02.502Z,25.90
2018-04-10T13:53:36.122Z,26.20
2018-04-10T13:56:10.082Z,26.20
2018-04-10T13:58:43.886Z,26.40
2018-04-10T14:01:17.701Z,26.40
2018-04-10T14:03:51.321Z,26.20
2018-04-10T14:06:24.855Z,26.40
2018-04-10T14:08:58.503Z,26.50
2018-04-10T14:11:32.099Z,26.50
2018-04-10T14:14:06.117Z,26.40
2018-04-10T14:16:39.710Z,26.40
2018-04-10T14:19:13.522Z,26.30
2018-04-10T14:21:47.173Z,26.30
2018-04-10T14:24:20.953Z,26.30
2018-04-10T14:26:54.527Z,26.30
2018-04-10T14:29:28.330Z,26.40
2018-04-10T14:32:02.130Z,26.30
2018-04-10T14:34:36.650Z,26.40
2018-04-10T14:37:10.182Z,26.40
2018-04-10T14:39:44.457Z,26.50
2018-04-10T14:42:18.418Z,26.50
2018-04-10T14:44:52.106Z,26.50
2018-04-10T14:47:25.791Z,26.40
2018-04-10T14:49:59.605Z,26.50
2018-04-10T14:52:33.262Z,26.40
2018-04-10T14:55:06.910Z,26.50
2018-04-10T14:57:40.463Z,26.50
2018-04-10T15:00:13.993Z,26.60
2018-04-10T15:02:47.666Z,26.70
2018-04-10T15:05:21.230Z,26.50
2018-04-10T15:07:54.852Z,26.40
2018-04-10T15:10:28.601Z,26.60
2018-04-10T15:13:02.275Z,26.60
2018-04-10T15:15:36.815Z,26.20
2018-04-10T15:18:10.465Z,26.20
2018-04-10T15:20:44.139Z,26.20
2018-04-10T15:23:18.033Z,26.30
2018-04-10T15:25:51.554Z,26.20
2018-04-10T15:28:25.061Z,26.50
2018-04-10T15:30:58.847Z,26.40
2018-04-10T15:33:32.594Z,26.20
2018-04-10T15:36:06.246Z,26.00
2018-04-10T15:38:39.845Z,26.00
2018-04-10T15:41:13.653Z,26.20
2018-04-10T15:43:47.455Z,25.90
2018-04-10T15:46:21.878Z,26.00
2018-04-10T15:48:55.479Z,25.90
2018-04-10T15:51:30.000Z,25.90
2018-04-10T15:54:03.701Z,25.90
2018-04-10T15:56:37.510Z,26.20
2018-04-10T15:59:11.110Z,26.10
2018-04-10T16:01:45.688Z,26.10
2018-04-10T16:04:20.158Z,25.90
2018-04-10T16:06:53.953Z,25.90
2018-04-10T16:09:27.673Z,25.90
2018-04-10T16:12:01.254Z,26.00
2018-04-10T16:14:34.970Z,25.70
2018-04-10T16:17:08.548Z,25.90
2018-04-10T16:19:42.378Z,25.90
2018-04-10T16:22:16.145Z,25.80
2018-04-10T16:24:49.784Z,25.80
2018-04-10T16:27:23.382Z,25.60
2018-04-10T16:29:57.219Z,25.60
2018-04-10T16:32:31.806Z,25.60
2018-04-10T16:35:06.226Z,25.70
2018-04-10T16:37:39.934Z,25.60
2018-04-10T16:40:13.865Z,25.70
2018-04-10T16:42:48.153Z,25.30
2018-04-10T16:45:21.870Z,25.30
2018-04-10T16:47:55.693Z,25.30
2018-04-10T16:50:29.261Z,25.40
2018-04-10T16:53:03.073Z,25.30
2018-04-10T16:55:37.541Z,25.40
2018-04-10T16:58:11.302Z,25.40
2018-04-10T17:00:44.801Z,25.40
2018-04-10T17:03:18.390Z,25.30
2018-04-10T17:05:52.107Z,25.20
2018-04-10T17:08:26.415Z,24.90
2018-04-10T17:11:00.124Z,24.90
2018-04-10T17:13:33.709Z,25.00
2018-04-10T17:16:07.797Z,25.00
2018-04-10T17:18:41.556Z,24.80
2018-04-10T17:21:15.214Z,24.80
2018-04-10T17:23:48.737Z,24.80
2018-04-10T17:26:23.029Z,24.40
2018-04-10T17:28:56.775Z,24.50
2018-04-10T17:31:30.306Z,24.40
2018-04-10T17:34:03.835Z,24.30
2018-04-10T17:36:38.374Z,23.90
2018-04-10T17:39:12.070Z,23.90
2018-04-10T17:41:45.622Z,23.70
2018-04-10T17:44:20.070Z,23.50
2018-04-10T17:46:53.805Z,23.50
2018-04-10T17:49:27.614Z,23.50
2018-04-10T17:52:01.109Z,23.50
2018-04-10T17:54:35.605Z,23.30
2018-04-10T17:57:09.237Z,23.30
2018-04-10T17:59:43.109Z,23.20
2018-04-10T18:02:16.843Z,23.10
2018-04-10T18:04:50.674Z,23.00
2018-04-10T18:07:24.333Z,22.90
2018-04-10T18:09:58.249Z,22.70
2018-04-10T18:12:32.088Z,22.50
2018-04-10T18:15:05.681Z,22.30
2018-04-10T18:17:40.977Z,22.30
2018-04-10T18:20:15.532Z,22.30
2018-04-10T18:22:49.340Z,22.30
2018-04-10T18:25:22.869Z,22.20
2018-04-10T18:27:56.750Z,22.20
2018-04-10T18:30:30.305Z,22.10
2018-04-10T18:33:04.150Z,22.00
2018-04-10T18:35:38.770Z,21.70
2018-04-10T18:38:12.574Z,21.70
2018-04-10T18:40:46.390Z,21.70
2018-04-10T18:43:21.007Z,21.40
2018-04-10T18:45:54.607Z,21.30
2018-04-10T18:48:28.214Z,21.30
2018-04-10T18:51:01.781Z,21.30
2018-04-10T18:53:35.525Z,21.30
2018-04-10T18:56:09.418Z,21.30
2018-04-10T18:58:43.221Z,21.20
2018-04-10T19:01:17.530Z,21.10
2018-04-10T19:03:51.452Z,21.10
2018-04-10T19:06:25.762Z,20.90
2018-04-10T19:08:59.537Z,20.90
2018-04-10T19:11:33.370Z,20.80
2018-04-10T19:14:07.298Z,20.70
2018-04-10T19:16:41.049Z,20.60
2018-04-10T19:19:14.762Z,20.60
2018-04-10T19:21:48.547Z,20.50
2018-04-10T19:24:22.370Z,20.60
2018-04-10T19:26:56.193Z,20.60
2018-04-10T19:29:29.734Z,20.50
2018-04-10T19:32:03.523Z,20.40
2018-04-10T19:34:37.325Z,20.40
2018-04-10T19:37:11.151Z,20.30
2018-04-10T19:39:44.708Z,20.20
2018-04-10T19:42:18.420Z,20.20
2018-04-10T19:44:52.125Z,20.20
2018-04-10T19:47:25.697Z,20.10
2018-04-10T19:49:59.442Z,19.90
2018-04-10T19:52:33.030Z,19.70
2018-04-10T19:55:06.699Z,19.70
2018-04-10T19:57:40.337Z,19.60
2018-04-10T20:00:13.909Z,19.50
2018-04-10T20:02:47.523Z,19.50
2018-04-10T20:05:21.350Z,19.40
2018-04-10T20:07:55.643Z,19.10
2018-04-10T20:10:30.058Z,19.10
2018-04-10T20:13:03.605Z,19.10
2018-04-10T20:15:37.296Z,19.00
2018-04-10T20:18:11.202Z,19.00
2018-04-10T20:20:44.867Z,18.80
2018-04-10T20:23:18.603Z,18.80
2018-04-10T20:25:52.306Z,18.70
2018-04-10T20:28:26.010Z,18.80
2018-04-10T20:30:59.605Z,18.70
2018-04-10T20:33:33.414Z,18.60
2018-04-10T20:36:07.015Z,18.60
2018-04-10T20:38:41.637Z,18.40
2018-04-10T20:41:15.299Z,18.40
2018-04-10T20:43:49.065Z,18.40
2018-04-10T20:46:22.608Z,18.20
2018-04-10T20:48:56.278Z,18.10
2018-04-10T20:51:29.858Z,18.10
2018-04-10T20:54:04.174Z,17.80
2018-04-10T20:56:37.874Z,17.70
2018-04-10T20:59:12.498Z,17.50
2018-04-10T21:01:46.306Z,17.50
2018-04-10T21:04:20.931Z,17.60
2018-04-10T21:06:54.726Z,17.50
2018-04-10T21:09:28.496Z,17.50
2018-04-10T21:12:02.142Z,17.40
2018-04-10T21:14:35.937Z,17.40
2018-04-10T21:17:09.745Z,17.20
2018-04-10T21:19:43.263Z,17.20
2018-04-10T21:22:17.018Z,17.10
2018-04-10T21:24:51.554Z,17.00
2018-04-10T21:27:25.139Z,17.00
2018-04-10T21:29:58.779Z,17.00
2018-04-10T21:32:33.058Z,16.90
2018-04-10T21:35:06.881Z,16.90
2018-04-10T21:37:40.612Z,16.90
2018-04-10T21:40:14.309Z,16.90
2018-04-10T21:42:53.595Z,16.80
2018-04-10T21:45:27.338Z,16.70
2018-04-10T21:48:01.009Z,16.40
2018-04-10T21:50:34.531Z,16.30
2018-04-10T21:53:08.141Z,16.20
2018-04-10T21:55:41.658Z,16.10
2018-04-10T21:58:15.349Z,16.00
2018-04-10T22:00:48.990Z,15.90
2018-04-10T22:03:22.509Z,15.80
2018-04-10T22:05:56.075Z,15.70
2018-04-10T22:08:29.741Z,15.60
2018-04-10T22:11:03.354Z,15.50
2018-04-10T22:13:36.905Z,15.40
2018-04-10T22:16:10.445Z,15.30
2018-04-10T22:18:43.953Z,15.30
2018-04-10T22:21:17.752Z,15.20
2018-04-10T22:23:51.358Z,15.20
2018-04-10T22:26:25.675Z,15.10
2018-04-10T22:28:59.336Z,15.10
2018-04-10T22:31:32.894Z,15.00
2018-04-10T22:34:06.763Z,15.00
2018-04-10T22:36:40.553Z,14.90
2018-04-10T22:39:14.365Z,14.90
2018-04-10T22:41:48.662Z,14.80
2018-04-10T22:44:22.446Z,14.80
2018-04-10T22:46:55.955Z,14.80
2018-04-10T22:49:29.451Z,14.80
2018-04-10T22:52:03.187Z,14.70
2018-04-10T22:54:37.598Z,14.40
2018-04-10T22:57:11.236Z,14.40
2018-04-10T22:59:44.878Z,14.30
2018-04-10T23:02:18.608Z,14.20
2018-04-10T23:04:52.302Z,14.30
2018-04-10T23:07:26.028Z,14.10
2018-04-10T23:09:59.717Z,14.00
2018-04-10T23:12:33.335Z,14.10
2018-04-10T23:15:07.055Z,13.80
2018-04-10T23:17:40.864Z,13.80
2018-04-10T23:20:15.283Z,13.80
2018-04-10T23:22:49.694Z,13.70
2018-04-10T23:25:23.502Z,13.60
2018-04-10T23:27:57.111Z,13.50
2018-04-10T23:30:30.917Z,13.60
2018-04-10T23:33:04.931Z,13.60
2018-04-10T23:35:38.538Z,13.30
2018-04-10T23:38:12.167Z,13.30
2018-04-10T23:40:46.642Z,13.00
2018-04-10T23:43:20.364Z,13.00
2018-04-10T23:45:53.938Z,12.90
2018-04-10T23:48:27.488Z,13.00
2018-04-10T23:51:01.170Z,12.90
2018-04-10T23:53:34.851Z,12.80
2018-04-10T23:56:08.479Z,12.80
2018-04-10T23:58:42.130Z,12.80
